sensor_id;sensor_type;location;lat;lon;timestamp;temperature;humidity
8939;DHT22;4504;48.810;9.172;2023-05-07T00:00:48;15.40;99.90
8939;DHT22;4504;48.810;9.172;2023-05-07T00:03:18;15.50;99.90
8939;DHT22;4504;48.810;9.172;2023-05-07T00:05:45;15.50;99.90
8939;DHT22;4504;48.810;9.172;2023-05-07T00:08:13;15.50;99.90
8939;DHT22;4504;48.810;9.172;2023-05-07T00:10:41;15.50;99.90
8939;DHT22;4504;48.810;9.172;2023-05-07T00:13:08;15.50;99.90
8939;DHT22;4504;48.810;9.172;2023-05-07T00:15:35;15.50;99.90
8939;DHT22;4504;48.810;9.172;2023-05-07T00:18:02;15.40;99.90
8939;DHT22;4504;48.810;9.172;2023-05-07T00:20:30;15.30;99.90
8939;DHT22;4504;48.810;9.172;2023-05-07T00:22:57;15.30;99.90
8939;DHT22;4504;48.810;9.172;2023-05-07T00:25:24;15.30;99.90
8939;DHT22;4504;48.810;9.172;2023-05-07T00:27:51;15.30;99.90
8939;DHT22;4504;48.810;9.172;2023-05-07T00:30:18;15.30;99.90
8939;DHT22;4504;48.810;9.172;2023-05-07T00:32:45;15.40;99.90
8939;DHT22;4504;48.810;9.172;2023-05-07T00:35:14;15.40;99.90
8939;DHT22;4504;48.810;9.172;2023-05-07T00:37:42;15.30;99.90
8939;DHT22;4504;48.810;9.172;2023-05-07T00:40:10;15.20;99.90
8939;DHT22;4504;48.810;9.172;2023-05-07T00:42:37;15.10;99.90
8939;DHT22;4504;48.810;9.172;2023-05-07T00:45:05;15.10;99.90
8939;DHT22;4504;48.810;9.172;2023-05-07T00:47:33;15.00;99.90
8939;DHT22;4504;48.810;9.172;2023-05-07T00:50:00;14.90;99.90
8939;DHT22;4504;48.810;9.172;2023-05-07T00:52:28;14.90;99.90
8939;DHT22;4504;48.810;9.172;2023-05-07T00:54:57;14.90;99.90
8939;DHT22;4504;48.810;9.172;2023-05-07T00:57:24;14.90;99.90
8939;DHT22;4504;48.810;9.172;2023-05-07T00:59:52;14.90;99.90
8939;DHT22;4504;48.810;9.172;2023-05-07T01:02:19;14.90;99.90
8939;DHT22;4504;48.810;9.172;2023-05-07T01:04:46;14.90;99.90
8939;DHT22;4504;48.810;9.172;2023-05-07T01:07:13;15.00;99.90
8939;DHT22;4504;48.810;9.172;2023-05-07T01:09:40;15.00;99.90
8939;DHT22;4504;48.810;9.172;2023-05-07T01:12:09;15.00;99.90
8939;DHT22;4504;48.810;9.172;2023-05-07T01:14:37;15.00;99.90
8939;DHT22;4504;48.810;9.172;2023-05-07T01:17:04;14.90;99.90
8939;DHT22;4504;48.810;9.172;2023-05-07T01:19:32;14.90;99.90
8939;DHT22;4504;48.810;9.172;2023-05-07T01:22:03;14.90;99.90
8939;DHT22;4504;48.810;9.172;2023-05-07T01:24:37;14.80;99.90
8939;DHT22;4504;48.810;9.172;2023-05-07T01:27:05;14.80;99.90
8939;DHT22;4504;48.810;9.172;2023-05-07T01:29:33;14.70;99.90
8939;DHT22;4504;48.810;9.172;2023-05-07T01:32:01;14.80;99.90
8939;DHT22;4504;48.810;9.172;2023-05-07T01:34:32;14.80;99.90
8939;DHT22;4504;48.810;9.172;2023-05-07T01:37:01;14.80;99.90
8939;DHT22;4504;48.810;9.172;2023-05-07T01:39:29;14.80;99.90
8939;DHT22;4504;48.810;9.172;2023-05-07T01:41:59;14.70;99.90
8939;DHT22;4504;48.810;9.172;2023-05-07T01:44:27;14.70;99.90
8939;DHT22;4504;48.810;9.172;2023-05-07T01:46:54;14.60;99.90
8939;DHT22;4504;48.810;9.172;2023-05-07T01:49:21;14.60;99.90
8939;DHT22;4504;48.810;9.172;2023-05-07T01:51:49;14.60;99.90
8939;DHT22;4504;48.810;9.172;2023-05-07T01:54:16;14.60;99.90
8939;DHT22;4504;48.810;9.172;2023-05-07T01:56:43;14.50;99.90
8939;DHT22;4504;48.810;9.172;2023-05-07T01:59:12;14.50;99.90
8939;DHT22;4504;48.810;9.172;2023-05-07T02:01:39;14.50;99.90
8939;DHT22;4504;48.810;9.172;2023-05-07T02:04:06;14.50;99.90
8939;DHT22;4504;48.810;9.172;2023-05-07T02:06:33;14.50;99.90
8939;DHT22;4504;48.810;9.172;2023-05-07T02:09:03;14.40;99.90
8939;DHT22;4504;48.810;9.172;2023-05-07T02:11:31;14.30;99.90
8939;DHT22;4504;48.810;9.172;2023-05-07T02:13:57;14.40;99.90
8939;DHT22;4504;48.810;9.172;2023-05-07T02:16:26;14.40;99.90
8939;DHT22;4504;48.810;9.172;2023-05-07T02:18:53;14.50;99.90
8939;DHT22;4504;48.810;9.172;2023-05-07T02:21:21;14.40;99.90
8939;DHT22;4504;48.810;9.172;2023-05-07T02:23:48;14.40;99.90
8939;DHT22;4504;48.810;9.172;2023-05-07T02:26:14;14.30;99.90
8939;DHT22;4504;48.810;9.172;2023-05-07T02:28:41;14.40;99.90
8939;DHT22;4504;48.810;9.172;2023-05-07T02:31:09;14.40;99.90
8939;DHT22;4504;48.810;9.172;2023-05-07T02:33:37;14.40;99.90
8939;DHT22;4504;48.810;9.172;2023-05-07T02:36:08;14.40;99.90
8939;DHT22;4504;48.810;9.172;2023-05-07T02:38:39;14.30;99.90
8939;DHT22;4504;48.810;9.172;2023-05-07T02:41:06;14.20;99.90
8939;DHT22;4504;48.810;9.172;2023-05-07T02:43:33;14.20;99.90
8939;DHT22;4504;48.810;9.172;2023-05-07T02:46:01;14.10;99.90
8939;DHT22;4504;48.810;9.172;2023-05-07T02:48:28;14.10;99.90
8939;DHT22;4504;48.810;9.172;2023-05-07T02:50:57;14.10;99.90
8939;DHT22;4504;48.810;9.172;2023-05-07T02:53:24;14.20;99.90
8939;DHT22;4504;48.810;9.172;2023-05-07T02:55:52;14.20;99.90
8939;DHT22;4504;48.810;9.172;2023-05-07T02:58:19;14.20;99.90
8939;DHT22;4504;48.810;9.172;2023-05-07T03:00:46;14.20;99.90
8939;DHT22;4504;48.810;9.172;2023-05-07T03:03:25;14.10;99.90
8939;DHT22;4504;48.810;9.172;2023-05-07T03:05:52;14.10;99.90
8939;DHT22;4504;48.810;9.172;2023-05-07T03:08:20;13.90;99.90
8939;DHT22;4504;48.810;9.172;2023-05-07T03:10:48;13.80;99.90
8939;DHT22;4504;48.810;9.172;2023-05-07T03:13:15;13.80;99.90
8939;DHT22;4504;48.810;9.172;2023-05-07T03:15:42;13.80;99.90
8939;DHT22;4504;48.810;9.172;2023-05-07T03:18:09;13.70;99.90
8939;DHT22;4504;48.810;9.172;2023-05-07T03:20:36;13.70;99.90
8939;DHT22;4504;48.810;9.172;2023-05-07T03:23:03;13.80;99.90
8939;DHT22;4504;48.810;9.172;2023-05-07T03:25:31;13.80;99.90
8939;DHT22;4504;48.810;9.172;2023-05-07T03:27:59;13.80;99.90
8939;DHT22;4504;48.810;9.172;2023-05-07T03:30:34;13.70;99.90
8939;DHT22;4504;48.810;9.172;2023-05-07T03:33:01;13.70;99.90
8939;DHT22;4504;48.810;9.172;2023-05-07T03:35:28;13.60;99.90
8939;DHT22;4504;48.810;9.172;2023-05-07T03:37:55;13.70;99.90
8939;DHT22;4504;48.810;9.172;2023-05-07T03:40:22;13.70;99.90
8939;DHT22;4504;48.810;9.172;2023-05-07T03:42:54;13.70;99.90
8939;DHT22;4504;48.810;9.172;2023-05-07T03:45:25;13.60;99.90
8939;DHT22;4504;48.810;9.172;2023-05-07T03:48:01;13.60;99.90
8939;DHT22;4504;48.810;9.172;2023-05-07T03:50:28;13.50;99.90
8939;DHT22;4504;48.810;9.172;2023-05-07T03:52:55;13.40;99.90
8939;DHT22;4504;48.810;9.172;2023-05-07T03:55:23;13.30;99.90
8939;DHT22;4504;48.810;9.172;2023-05-07T03:57:56;13.30;99.90
8939;DHT22;4504;48.810;9.172;2023-05-07T04:00:26;13.30;99.90
8939;DHT22;4504;48.810;9.172;2023-05-07T04:02:53;13.20;99.90
8939;DHT22;4504;48.810;9.172;2023-05-07T04:05:25;13.20;99.90
8939;DHT22;4504;48.810;9.172;2023-05-07T04:07:57;13.20;99.90
8939;DHT22;4504;48.810;9.172;2023-05-07T04:10:30;13.20;99.90
8939;DHT22;4504;48.810;9.172;2023-05-07T04:13:01;13.20;99.90
8939;DHT22;4504;48.810;9.172;2023-05-07T04:15:28;13.30;99.90
8939;DHT22;4504;48.810;9.172;2023-05-07T04:17:55;13.30;99.90
8939;DHT22;4504;48.810;9.172;2023-05-07T04:20:24;13.30;99.90
8939;DHT22;4504;48.810;9.172;2023-05-07T04:22:58;13.40;99.90
8939;DHT22;4504;48.810;9.172;2023-05-07T04:25:25;13.30;99.90
8939;DHT22;4504;48.810;9.172;2023-05-07T04:27:57;13.40;99.90
8939;DHT22;4504;48.810;9.172;2023-05-07T04:30:27;13.40;99.90
8939;DHT22;4504;48.810;9.172;2023-05-07T04:32:54;13.30;99.90
8939;DHT22;4504;48.810;9.172;2023-05-07T04:35:23;13.40;99.90
8939;DHT22;4504;48.810;9.172;2023-05-07T04:37:50;13.40;99.90
8939;DHT22;4504;48.810;9.172;2023-05-07T04:40:17;13.40;99.90
8939;DHT22;4504;48.810;9.172;2023-05-07T04:42:44;13.50;99.90
8939;DHT22;4504;48.810;9.172;2023-05-07T04:45:11;13.50;99.90
8939;DHT22;4504;48.810;9.172;2023-05-07T04:47:42;13.60;99.90
8939;DHT22;4504;48.810;9.172;2023-05-07T04:50:09;13.70;99.90
8939;DHT22;4504;48.810;9.172;2023-05-07T04:52:38;13.70;99.90
8939;DHT22;4504;48.810;9.172;2023-05-07T04:55:06;13.70;99.90
8939;DHT22;4504;48.810;9.172;2023-05-07T04:57:37;13.50;99.90
8939;DHT22;4504;48.810;9.172;2023-05-07T05:00:06;13.40;99.90
8939;DHT22;4504;48.810;9.172;2023-05-07T05:02:35;13.40;99.90
8939;DHT22;4504;48.810;9.172;2023-05-07T05:05:05;13.50;99.90
8939;DHT22;4504;48.810;9.172;2023-05-07T05:07:32;13.70;99.90
8939;DHT22;4504;48.810;9.172;2023-05-07T05:10:01;13.70;99.90
8939;DHT22;4504;48.810;9.172;2023-05-07T05:12:30;13.80;99.90
8939;DHT22;4504;48.810;9.172;2023-05-07T05:14:59;13.80;99.90
8939;DHT22;4504;48.810;9.172;2023-05-07T05:17:26;13.90;99.90
8939;DHT22;4504;48.810;9.172;2023-05-07T05:19:52;13.90;99.90
8939;DHT22;4504;48.810;9.172;2023-05-07T05:22:21;13.90;99.90
8939;DHT22;4504;48.810;9.172;2023-05-07T05:24:48;13.90;99.90
8939;DHT22;4504;48.810;9.172;2023-05-07T05:27:16;13.90;99.90
8939;DHT22;4504;48.810;9.172;2023-05-07T05:29:43;13.80;99.90
8939;DHT22;4504;48.810;9.172;2023-05-07T05:32:10;13.80;99.90
8939;DHT22;4504;48.810;9.172;2023-05-07T05:34:37;13.60;99.90
8939;DHT22;4504;48.810;9.172;2023-05-07T05:37:05;13.70;99.90
8939;DHT22;4504;48.810;9.172;2023-05-07T05:39:34;13.70;99.90
8939;DHT22;4504;48.810;9.172;2023-05-07T05:42:01;13.70;99.90
8939;DHT22;4504;48.810;9.172;2023-05-07T05:44:28;13.80;99.90
8939;DHT22;4504;48.810;9.172;2023-05-07T05:46:56;13.90;99.90
8939;DHT22;4504;48.810;9.172;2023-05-07T05:49:25;14.00;99.90
8939;DHT22;4504;48.810;9.172;2023-05-07T05:51:52;14.00;99.90
8939;DHT22;4504;48.810;9.172;2023-05-07T05:54:20;14.00;99.90
8939;DHT22;4504;48.810;9.172;2023-05-07T05:56:49;14.10;99.90
8939;DHT22;4504;48.810;9.172;2023-05-07T05:59:16;14.20;99.90
8939;DHT22;4504;48.810;9.172;2023-05-07T06:01:43;14.30;99.90
8939;DHT22;4504;48.810;9.172;2023-05-07T06:04:11;14.40;99.90
8939;DHT22;4504;48.810;9.172;2023-05-07T06:06:38;14.50;99.90
8939;DHT22;4504;48.810;9.172;2023-05-07T06:09:05;14.40;99.90
8939;DHT22;4504;48.810;9.172;2023-05-07T06:11:40;14.40;99.90
8939;DHT22;4504;48.810;9.172;2023-05-07T06:14:08;14.40;99.90
8939;DHT22;4504;48.810;9.172;2023-05-07T06:16:36;14.50;99.90
8939;DHT22;4504;48.810;9.172;2023-05-07T06:19:05;14.70;99.90
8939;DHT22;4504;48.810;9.172;2023-05-07T06:21:31;14.70;99.90
8939;DHT22;4504;48.810;9.172;2023-05-07T06:23:58;14.60;99.90
8939;DHT22;4504;48.810;9.172;2023-05-07T06:26:25;14.60;99.90
8939;DHT22;4504;48.810;9.172;2023-05-07T06:28:52;14.60;99.90
8939;DHT22;4504;48.810;9.172;2023-05-07T06:31:21;14.60;99.90
8939;DHT22;4504;48.810;9.172;2023-05-07T06:33:59;14.50;99.90
8939;DHT22;4504;48.810;9.172;2023-05-07T06:36:32;14.60;99.90
8939;DHT22;4504;48.810;9.172;2023-05-07T06:39:03;14.60;99.90
8939;DHT22;4504;48.810;9.172;2023-05-07T06:41:30;14.70;99.90
8939;DHT22;4504;48.810;9.172;2023-05-07T06:44:04;14.80;99.90
8939;DHT22;4504;48.810;9.172;2023-05-07T06:46:44;14.90;99.90
8939;DHT22;4504;48.810;9.172;2023-05-07T06:49:13;15.10;99.90
8939;DHT22;4504;48.810;9.172;2023-05-07T06:51:40;15.20;99.90
8939;DHT22;4504;48.810;9.172;2023-05-07T06:54:07;15.20;99.90
8939;DHT22;4504;48.810;9.172;2023-05-07T06:56:37;15.20;99.90
8939;DHT22;4504;48.810;9.172;2023-05-07T06:59:06;15.30;99.90
8939;DHT22;4504;48.810;9.172;2023-05-07T07:01:36;15.30;99.90
8939;DHT22;4504;48.810;9.172;2023-05-07T07:04:06;15.40;99.90
8939;DHT22;4504;48.810;9.172;2023-05-07T07:06:33;15.60;99.90
8939;DHT22;4504;48.810;9.172;2023-05-07T07:09:03;15.80;99.90
8939;DHT22;4504;48.810;9.172;2023-05-07T07:11:30;15.90;99.90
8939;DHT22;4504;48.810;9.172;2023-05-07T07:13:58;16.00;99.90
8939;DHT22;4504;48.810;9.172;2023-05-07T07:16:25;16.20;99.90
8939;DHT22;4504;48.810;9.172;2023-05-07T07:18:52;16.30;99.90
8939;DHT22;4504;48.810;9.172;2023-05-07T07:21:21;16.40;99.90
8939;DHT22;4504;48.810;9.172;2023-05-07T07:23:48;16.60;99.90
8939;DHT22;4504;48.810;9.172;2023-05-07T07:26:17;16.80;99.90
8939;DHT22;4504;48.810;9.172;2023-05-07T07:28:45;16.90;99.90
8939;DHT22;4504;48.810;9.172;2023-05-07T07:31:15;17.10;99.90
8939;DHT22;4504;48.810;9.172;2023-05-07T07:33:43;17.20;99.90
8939;DHT22;4504;48.810;9.172;2023-05-07T07:36:10;17.30;99.90
8939;DHT22;4504;48.810;9.172;2023-05-07T07:38:39;17.60;99.90
8939;DHT22;4504;48.810;9.172;2023-05-07T07:41:07;17.70;99.90
8939;DHT22;4504;48.810;9.172;2023-05-07T07:43:35;17.80;99.90
8939;DHT22;4504;48.810;9.172;2023-05-07T07:46:03;17.90;99.90
8939;DHT22;4504;48.810;9.172;2023-05-07T07:48:31;18.10;99.90
8939;DHT22;4504;48.810;9.172;2023-05-07T07:50:58;18.30;99.90
8939;DHT22;4504;48.810;9.172;2023-05-07T07:53:25;18.30;99.90
8939;DHT22;4504;48.810;9.172;2023-05-07T07:55:54;18.40;99.90
8939;DHT22;4504;48.810;9.172;2023-05-07T07:58:23;18.60;99.90
8939;DHT22;4504;48.810;9.172;2023-05-07T08:00:51;18.70;99.90
8939;DHT22;4504;48.810;9.172;2023-05-07T08:03:17;18.80;99.90
8939;DHT22;4504;48.810;9.172;2023-05-07T08:05:49;18.80;99.90
8939;DHT22;4504;48.810;9.172;2023-05-07T08:08:17;18.70;99.90
8939;DHT22;4504;48.810;9.172;2023-05-07T08:10:44;18.80;99.90
8939;DHT22;4504;48.810;9.172;2023-05-07T08:13:20;19.00;99.90
8939;DHT22;4504;48.810;9.172;2023-05-07T08:15:47;19.10;99.90
8939;DHT22;4504;48.810;9.172;2023-05-07T08:18:14;19.20;99.90
8939;DHT22;4504;48.810;9.172;2023-05-07T08:20:42;19.30;99.90
8939;DHT22;4504;48.810;9.172;2023-05-07T08:23:14;19.10;99.90
8939;DHT22;4504;48.810;9.172;2023-05-07T08:25:42;19.10;99.90
8939;DHT22;4504;48.810;9.172;2023-05-07T08:28:10;19.10;99.90
8939;DHT22;4504;48.810;9.172;2023-05-07T08:30:39;19.20;99.90
8939;DHT22;4504;48.810;9.172;2023-05-07T08:33:08;19.20;99.90
8939;DHT22;4504;48.810;9.172;2023-05-07T08:35:36;19.30;99.90
8939;DHT22;4504;48.810;9.172;2023-05-07T08:38:05;19.30;99.90
8939;DHT22;4504;48.810;9.172;2023-05-07T08:40:37;19.40;99.90
8939;DHT22;4504;48.810;9.172;2023-05-07T08:43:06;19.50;99.90
8939;DHT22;4504;48.810;9.172;2023-05-07T08:45:39;19.40;99.90
8939;DHT22;4504;48.810;9.172;2023-05-07T08:48:10;19.30;99.90
8939;DHT22;4504;48.810;9.172;2023-05-07T08:50:41;19.30;99.90
8939;DHT22;4504;48.810;9.172;2023-05-07T08:53:10;19.40;99.90
8939;DHT22;4504;48.810;9.172;2023-05-07T08:55:37;19.50;99.90
8939;DHT22;4504;48.810;9.172;2023-05-07T08:58:05;19.50;99.90
8939;DHT22;4504;48.810;9.172;2023-05-07T09:00:36;19.60;99.90
8939;DHT22;4504;48.810;9.172;2023-05-07T09:03:04;19.80;99.90
8939;DHT22;4504;48.810;9.172;2023-05-07T09:05:32;20.00;99.90
8939;DHT22;4504;48.810;9.172;2023-05-07T09:07:59;20.10;99.90
8939;DHT22;4504;48.810;9.172;2023-05-07T09:10:26;20.20;99.90
8939;DHT22;4504;48.810;9.172;2023-05-07T09:12:54;20.40;99.90
8939;DHT22;4504;48.810;9.172;2023-05-07T09:15:21;20.50;99.90
8939;DHT22;4504;48.810;9.172;2023-05-07T09:17:48;20.50;99.90
8939;DHT22;4504;48.810;9.172;2023-05-07T09:20:16;20.50;99.90
8939;DHT22;4504;48.810;9.172;2023-05-07T09:22:44;20.60;99.90
8939;DHT22;4504;48.810;9.172;2023-05-07T09:25:14;20.60;99.90
8939;DHT22;4504;48.810;9.172;2023-05-07T09:27:42;20.60;99.90
8939;DHT22;4504;48.810;9.172;2023-05-07T09:30:10;20.70;99.90
8939;DHT22;4504;48.810;9.172;2023-05-07T09:32:37;20.80;99.90
8939;DHT22;4504;48.810;9.172;2023-05-07T09:35:06;21.00;99.90
8939;DHT22;4504;48.810;9.172;2023-05-07T09:37:42;21.20;99.70
8939;DHT22;4504;48.810;9.172;2023-05-07T09:40:20;21.20;99.20
8939;DHT22;4504;48.810;9.172;2023-05-07T09:42:48;21.20;99.20
8939;DHT22;4504;48.810;9.172;2023-05-07T09:47:08;21.20;98.90
8939;DHT22;4504;48.810;9.172;2023-05-07T09:49:47;21.20;99.50
8939;DHT22;4504;48.810;9.172;2023-05-07T09:52:17;21.40;98.50
8939;DHT22;4504;48.810;9.172;2023-05-07T09:54:48;21.60;98.80
8939;DHT22;4504;48.810;9.172;2023-05-07T09:57:19;21.60;99.00
8939;DHT22;4504;48.810;9.172;2023-05-07T09:59:52;21.70;98.20
8939;DHT22;4504;48.810;9.172;2023-05-07T10:02:21;21.80;97.10
8939;DHT22;4504;48.810;9.172;2023-05-07T10:04:52;21.90;97.00
8939;DHT22;4504;48.810;9.172;2023-05-07T10:07:25;22.00;96.50
8939;DHT22;4504;48.810;9.172;2023-05-07T10:09:55;22.10;96.10
8939;DHT22;4504;48.810;9.172;2023-05-07T10:12:30;22.20;96.10
8939;DHT22;4504;48.810;9.172;2023-05-07T10:15:05;22.40;95.80
8939;DHT22;4504;48.810;9.172;2023-05-07T10:17:35;22.70;95.80
8939;DHT22;4504;48.810;9.172;2023-05-07T10:20:03;22.90;95.00
8939;DHT22;4504;48.810;9.172;2023-05-07T10:22:34;22.90;95.10
8939;DHT22;4504;48.810;9.172;2023-05-07T10:25:08;23.00;95.50
8939;DHT22;4504;48.810;9.172;2023-05-07T10:27:37;23.20;96.10
8939;DHT22;4504;48.810;9.172;2023-05-07T10:30:12;23.60;94.00
8939;DHT22;4504;48.810;9.172;2023-05-07T10:32:45;23.70;94.20
8939;DHT22;4504;48.810;9.172;2023-05-07T10:35:23;23.70;93.40
8939;DHT22;4504;48.810;9.172;2023-05-07T10:37:51;23.80;93.90
8939;DHT22;4504;48.810;9.172;2023-05-07T10:40:20;23.90;93.30
8939;DHT22;4504;48.810;9.172;2023-05-07T10:42:56;24.20;93.20
8939;DHT22;4504;48.810;9.172;2023-05-07T10:45:24;24.40;91.50
8939;DHT22;4504;48.810;9.172;2023-05-07T10:48:10;24.20;90.90
8939;DHT22;4504;48.810;9.172;2023-05-07T10:50:39;24.30;90.10
8939;DHT22;4504;48.810;9.172;2023-05-07T10:53:23;24.10;91.30
8939;DHT22;4504;48.810;9.172;2023-05-07T10:56:33;23.90;91.90
8939;DHT22;4504;48.810;9.172;2023-05-07T10:59:33;23.90;91.70
8939;DHT22;4504;48.810;9.172;2023-05-07T11:02:21;23.60;90.90
8939;DHT22;4504;48.810;9.172;2023-05-07T11:05:28;23.80;90.60
8939;DHT22;4504;48.810;9.172;2023-05-07T11:08:12;23.90;90.10
8939;DHT22;4504;48.810;9.172;2023-05-07T11:10:50;24.00;90.40
8939;DHT22;4504;48.810;9.172;2023-05-07T11:13:42;23.80;91.50
8939;DHT22;4504;48.810;9.172;2023-05-07T11:16:18;24.40;90.40
8939;DHT22;4504;48.810;9.172;2023-05-07T11:18:49;24.20;87.40
8939;DHT22;4504;48.810;9.172;2023-05-07T11:21:33;24.20;87.70
8939;DHT22;4504;48.810;9.172;2023-05-07T11:24:19;24.80;89.60
8939;DHT22;4504;48.810;9.172;2023-05-07T11:26:58;24.70;89.30
8939;DHT22;4504;48.810;9.172;2023-05-07T11:29:26;24.60;88.40
8939;DHT22;4504;48.810;9.172;2023-05-07T11:32:00;24.50;89.20
8939;DHT22;4504;48.810;9.172;2023-05-07T11:34:32;24.30;89.40
8939;DHT22;4504;48.810;9.172;2023-05-07T11:37:01;24.10;90.20
8939;DHT22;4504;48.810;9.172;2023-05-07T11:39:46;24.00;90.10
8939;DHT22;4504;48.810;9.172;2023-05-07T11:42:29;23.80;90.60
8939;DHT22;4504;48.810;9.172;2023-05-07T11:44:56;23.50;91.50
8939;DHT22;4504;48.810;9.172;2023-05-07T11:47:24;23.40;91.60
8939;DHT22;4504;48.810;9.172;2023-05-07T11:49:52;23.30;91.60
8939;DHT22;4504;48.810;9.172;2023-05-07T11:52:21;23.10;92.40
8939;DHT22;4504;48.810;9.172;2023-05-07T11:54:49;22.80;92.50
8939;DHT22;4504;48.810;9.172;2023-05-07T11:57:16;22.60;93.60
8939;DHT22;4504;48.810;9.172;2023-05-07T11:59:43;22.60;93.20
8939;DHT22;4504;48.810;9.172;2023-05-07T12:02:10;22.40;92.50
8939;DHT22;4504;48.810;9.172;2023-05-07T12:04:40;22.40;93.30
8939;DHT22;4504;48.810;9.172;2023-05-07T12:07:11;22.30;93.20
8939;DHT22;4504;48.810;9.172;2023-05-07T12:09:40;22.20;94.00
8939;DHT22;4504;48.810;9.172;2023-05-07T12:12:07;22.00;93.10
8939;DHT22;4504;48.810;9.172;2023-05-07T12:14:37;22.00;93.60
8939;DHT22;4504;48.810;9.172;2023-05-07T12:17:06;21.90;94.70
8939;DHT22;4504;48.810;9.172;2023-05-07T12:19:34;21.90;96.30
8939;DHT22;4504;48.810;9.172;2023-05-07T12:22:02;21.80;99.30
8939;DHT22;4504;48.810;9.172;2023-05-07T12:24:44;21.30;99.90
8939;DHT22;4504;48.810;9.172;2023-05-07T12:27:11;20.50;99.90
8939;DHT22;4504;48.810;9.172;2023-05-07T12:29:38;19.90;99.90
8939;DHT22;4504;48.810;9.172;2023-05-07T12:32:06;19.40;99.90
8939;DHT22;4504;48.810;9.172;2023-05-07T12:34:33;19.10;99.90
8939;DHT22;4504;48.810;9.172;2023-05-07T12:37:02;18.60;99.90
8939;DHT22;4504;48.810;9.172;2023-05-07T12:39:29;18.30;99.90
8939;DHT22;4504;48.810;9.172;2023-05-07T12:41:59;18.10;99.90
8939;DHT22;4504;48.810;9.172;2023-05-07T12:44:29;18.10;99.90
8939;DHT22;4504;48.810;9.172;2023-05-07T12:46:57;18.00;99.90
8939;DHT22;4504;48.810;9.172;2023-05-07T12:49:25;17.80;99.90
8939;DHT22;4504;48.810;9.172;2023-05-07T12:51:53;17.70;99.90
8939;DHT22;4504;48.810;9.172;2023-05-07T12:54:30;17.50;99.90
8939;DHT22;4504;48.810;9.172;2023-05-07T12:57:02;17.40;99.90
8939;DHT22;4504;48.810;9.172;2023-05-07T12:59:33;17.20;99.90
8939;DHT22;4504;48.810;9.172;2023-05-07T13:02:01;17.10;99.90
8939;DHT22;4504;48.810;9.172;2023-05-07T13:04:28;16.90;99.90
8939;DHT22;4504;48.810;9.172;2023-05-07T13:06:55;16.70;99.90
8939;DHT22;4504;48.810;9.172;2023-05-07T13:09:21;16.40;99.90
8939;DHT22;4504;48.810;9.172;2023-05-07T13:11:48;16.30;99.90
8939;DHT22;4504;48.810;9.172;2023-05-07T13:14:17;16.20;99.90
8939;DHT22;4504;48.810;9.172;2023-05-07T13:16:46;16.30;99.90
8939;DHT22;4504;48.810;9.172;2023-05-07T13:19:13;16.10;99.90
8939;DHT22;4504;48.810;9.172;2023-05-07T13:21:40;15.90;99.90
8939;DHT22;4504;48.810;9.172;2023-05-07T13:24:07;15.80;99.90
8939;DHT22;4504;48.810;9.172;2023-05-07T13:26:34;15.70;99.90
8939;DHT22;4504;48.810;9.172;2023-05-07T13:29:01;15.70;99.90
8939;DHT22;4504;48.810;9.172;2023-05-07T13:31:30;15.60;99.90
8939;DHT22;4504;48.810;9.172;2023-05-07T13:33:57;15.60;99.90
8939;DHT22;4504;48.810;9.172;2023-05-07T13:36:24;15.50;99.90
8939;DHT22;4504;48.810;9.172;2023-05-07T13:38:52;15.50;99.90
8939;DHT22;4504;48.810;9.172;2023-05-07T13:41:19;15.60;99.90
8939;DHT22;4504;48.810;9.172;2023-05-07T13:43:46;15.60;99.90
8939;DHT22;4504;48.810;9.172;2023-05-07T13:46:13;15.60;99.90
8939;DHT22;4504;48.810;9.172;2023-05-07T13:48:41;15.60;99.90
8939;DHT22;4504;48.810;9.172;2023-05-07T13:51:08;15.60;99.90
8939;DHT22;4504;48.810;9.172;2023-05-07T13:53:35;15.60;99.90
8939;DHT22;4504;48.810;9.172;2023-05-07T13:56:02;15.60;99.90
8939;DHT22;4504;48.810;9.172;2023-05-07T13:58:30;15.60;99.90
8939;DHT22;4504;48.810;9.172;2023-05-07T14:00:57;15.60;99.90
8939;DHT22;4504;48.810;9.172;2023-05-07T14:03:24;15.60;99.90
8939;DHT22;4504;48.810;9.172;2023-05-07T14:05:52;15.70;99.90
8939;DHT22;4504;48.810;9.172;2023-05-07T14:08:19;15.80;99.90
8939;DHT22;4504;48.810;9.172;2023-05-07T14:10:46;15.80;99.90
8939;DHT22;4504;48.810;9.172;2023-05-07T14:13:13;15.80;99.90
8939;DHT22;4504;48.810;9.172;2023-05-07T14:15:40;15.70;99.90
8939;DHT22;4504;48.810;9.172;2023-05-07T14:18:09;15.80;99.90
8939;DHT22;4504;48.810;9.172;2023-05-07T14:20:36;15.90;99.90
8939;DHT22;4504;48.810;9.172;2023-05-07T14:23:04;16.00;99.90
8939;DHT22;4504;48.810;9.172;2023-05-07T14:25:32;16.00;99.90
8939;DHT22;4504;48.810;9.172;2023-05-07T14:27:59;16.00;99.90
8939;DHT22;4504;48.810;9.172;2023-05-07T14:30:26;16.00;99.90
8939;DHT22;4504;48.810;9.172;2023-05-07T14:32:53;16.10;99.90
8939;DHT22;4504;48.810;9.172;2023-05-07T14:35:20;16.00;99.90
8939;DHT22;4504;48.810;9.172;2023-05-07T14:37:47;16.00;99.90
8939;DHT22;4504;48.810;9.172;2023-05-07T14:40:15;15.80;99.90
8939;DHT22;4504;48.810;9.172;2023-05-07T14:42:42;15.90;99.90
8939;DHT22;4504;48.810;9.172;2023-05-07T14:45:10;15.80;99.90
8939;DHT22;4504;48.810;9.172;2023-05-07T14:47:37;15.90;99.90
8939;DHT22;4504;48.810;9.172;2023-05-07T14:50:04;15.90;99.90
8939;DHT22;4504;48.810;9.172;2023-05-07T14:52:31;15.90;99.90
8939;DHT22;4504;48.810;9.172;2023-05-07T14:54:58;16.00;99.90
8939;DHT22;4504;48.810;9.172;2023-05-07T14:57:27;16.00;99.90
8939;DHT22;4504;48.810;9.172;2023-05-07T14:59:54;16.10;99.90
8939;DHT22;4504;48.810;9.172;2023-05-07T15:02:21;16.10;99.90
8939;DHT22;4504;48.810;9.172;2023-05-07T15:04:48;16.20;99.90
8939;DHT22;4504;48.810;9.172;2023-05-07T15:07:15;16.40;99.90
8939;DHT22;4504;48.810;9.172;2023-05-07T15:09:43;16.50;99.90
8939;DHT22;4504;48.810;9.172;2023-05-07T15:12:10;16.50;99.90
8939;DHT22;4504;48.810;9.172;2023-05-07T15:14:39;16.60;99.90
8939;DHT22;4504;48.810;9.172;2023-05-07T15:17:06;16.70;99.90
8939;DHT22;4504;48.810;9.172;2023-05-07T15:19:33;16.70;99.90
8939;DHT22;4504;48.810;9.172;2023-05-07T15:22:00;16.80;99.90
8939;DHT22;4504;48.810;9.172;2023-05-07T15:24:28;16.80;99.90
8939;DHT22;4504;48.810;9.172;2023-05-07T15:26:55;16.70;99.90
8939;DHT22;4504;48.810;9.172;2023-05-07T15:29:24;16.70;99.90
8939;DHT22;4504;48.810;9.172;2023-05-07T15:31:52;16.80;99.90
8939;DHT22;4504;48.810;9.172;2023-05-07T15:34:20;16.90;99.90
8939;DHT22;4504;48.810;9.172;2023-05-07T15:36:47;17.10;99.90
8939;DHT22;4504;48.810;9.172;2023-05-07T15:39:14;17.10;99.90
8939;DHT22;4504;48.810;9.172;2023-05-07T15:41:41;17.40;99.90
8939;DHT22;4504;48.810;9.172;2023-05-07T15:44:08;17.40;99.90
8939;DHT22;4504;48.810;9.172;2023-05-07T15:46:35;17.50;99.90
8939;DHT22;4504;48.810;9.172;2023-05-07T15:49:03;17.60;99.90
8939;DHT22;4504;48.810;9.172;2023-05-07T15:51:33;17.60;99.90
8939;DHT22;4504;48.810;9.172;2023-05-07T15:54:00;17.60;99.90
8939;DHT22;4504;48.810;9.172;2023-05-07T15:56:27;17.60;99.90
8939;DHT22;4504;48.810;9.172;2023-05-07T15:58:58;17.70;99.90
8939;DHT22;4504;48.810;9.172;2023-05-07T16:01:25;17.70;99.90
8939;DHT22;4504;48.810;9.172;2023-05-07T16:03:52;17.60;99.90
8939;DHT22;4504;48.810;9.172;2023-05-07T16:06:20;17.60;99.90
8939;DHT22;4504;48.810;9.172;2023-05-07T16:08:47;17.50;99.90
8939;DHT22;4504;48.810;9.172;2023-05-07T16:11:14;17.50;99.90
8939;DHT22;4504;48.810;9.172;2023-05-07T16:13:41;17.50;99.90
8939;DHT22;4504;48.810;9.172;2023-05-07T16:16:08;17.50;99.90